Aérodrome :
LOGIN :

S'inscrire | Disclaimer

   EN    FR    IT 

 










Légende :    VFR   VFR Marginal   IFR   IFR Intensif   IFR Très Intensif
Visi : 
Plafond : 
>= 8 km
>= 3000ft
5 à 8 km
1000 à 3000 ft
1500m à 5 km
500 à 1000 ft
800 à 1500m
200 à 500 ft
< 800m
< 200 ft
Symboles :   Orages  Brouillard  Fortes neiges  Fortes précipitations  Vent > 20 kt
SIGMETs :   Divers  Orages  Givrage  Turbulence  Onde Orograph.  Cendres Volcan.







- Altitude de l'aérodrome : 37 ft
- Code IATA : HLY


EGOV - RAF Valley

DERNIER METAR :
  • 211250Z 20022KT 9999 FEW010 OVC250 17/15 Q1022 NOSIG RMK BLU BLU

METARs EXPIRÉS :
  • 211150Z 19021KT 9999 FEW009 BKN200 17/15 Q1022 NOSIG RMK BLU BLU
  • 211050Z 20020KT 9999 FEW012 BKN150 17/15 Q1023 NOSIG RMK BLU BLU
  • 211023Z 20019KT 9999 FEW010 BKN250 17/15 Q1023 TEMPO 5000 SHRA SCT015TCU RMK BLU TEMPO WHT

TAF TAF EGOV
Valide du 21 à 12h jusqu'au 21 à 19h UTC


211033Z 2112/2119 20020KT 9999 FEW020
TEMPO 2112/2113 5000 SHRA SCT015TCU
BECMG 2113/2115 20022G32KT
BECMG 2115/2119 -RA SCT016
TEMPO 2116/2119 7000 RA
Pas de NOTAMs connus pour ce terrain.



MET'MAP, la Météo Aéronautique d'un coup d'oeil ! - Copyright ORBIFLY Décembre 2007 - Disclaimer

ORBIFLY MET'MAP TEAM :

Programmation & Développement : Alexandra Zaïnal
Conception & Développement : Baudouin d'Aumeries
Co-Programmation & Développement : Marc-Olivier Méhu
Soutien technique & logistique : Manuel Goepfert

Contact : metmap@orbifly.com




SOURCES & CREDITS :

   NOAA